MSC Alghero — 3EVX2 — position and weather

sailwx.info

Track history (hours):
 
Tides and Currents Weather Stations Pressure Air Temp Water Temp Dewpoint Dewpoint Depression Visibility Wind Speed Wind Dir Waves Ship Positions

MSC Alghero

Last reported at 2017-Nov-20 00:30 UTC. Time now 2017-Nov-20 02:01 UTC.
Position N 49°05' W 004°51'.

Length 300 m; draft 12.7 m.

Type: Cargo ship. MMSI: 351819000.

Date/timePositionNaut miles runAvg speedWind from/ knotsBaromVisibWave heightAir tempDewpointWater temp
2017-Nov-20 00:30N 49°05' W 004°51'816.9
2017-Nov-20 00:01N 49°00' W 005°02'816.8
2017-Nov-19 23:30N 48°56' W 005°13'816.6
2017-Nov-19 23:00N 48°52' W 005°24'816.4
2017-Nov-19 22:30N 48°48' W 005°34'816.4
2017-Nov-19 22:00N 48°42' W 005°43'816.6
2017-Nov-19 21:30N 48°34' W 005°49'816.5
2017-Nov-19 21:00N 48°27' W 005°55'816.5
2017-Nov-19 20:30N 48°20' W 006°00'816.4
2017-Nov-19 20:00N 48°12' W 006°05'916.4
2017-Nov-19 19:27N 48°04' W 006°11'916.7
2017-Nov-19 18:56N 47°57' W 006°17'816.5
2017-Nov-19 18:29N 47°50' W 006°23'816.9
2017-Nov-19 17:59N 47°42' W 006°28'816.8
2017-Nov-19 17:31N 47°35' W 006°33'917.1
2017-Nov-19 17:00N 47°28' W 006°39'1018.0
2017-Nov-19 16:29N 47°19' W 006°46'816.9
2017-Nov-19 16:00N 47°12' W 006°51'917.9
2017-Nov-19 15:30N 47°04' W 006°58'917.7
2017-Nov-19 14:59N 46°56' W 007°04'917.4
2017-Nov-19 14:28N 46°48' W 007°10'817.2
2017-Nov-19 14:00N 46°41' W 007°15'917.5
2017-Nov-19 13:28N 46°32' W 007°21'6117.5
2017-Nov-19 09:59N 45°39' W 008°01'2418.5
2017-Nov-19 08:40N 45°17' W 008°18'5919.3
2017-Nov-19 05:36N 44°24' W 008°55'5416.7
2017-Nov-19 02:20N 43°36' W 009°29'617.4
2017-Nov-19 01:59N 43°30' W 009°33'1016.7
2017-Nov-19 01:24N 43°21' W 009°39'1116.8
2017-Nov-19 00:44N 43°12' W 009°47'15116.9
2017-Nov-18 15:47N 40°40' W 009°50'516.9
2017-Nov-18 15:30N 40°35' W 009°49'5917.1
2017-Nov-18 12:03N 39°37' W 009°54'816.6
2017-Nov-18 11:36N 39°29' W 009°54'516.8
2017-Nov-18 11:18N 39°24' W 009°53'617.3
2017-Nov-18 10:59N 39°19' W 009°52'817.5
2017-Nov-18 10:30N 39°10' W 009°52'816.8
2017-Nov-18 10:00N 39°02' W 009°52'714.3
2017-Nov-18 09:30N 38°55' W 009°52'714.3
2017-Nov-18 09:00N 38°48' W 009°52'714.1
2017-Nov-18 08:30N 38°41' W 009°51'713.6
2017-Nov-18 08:00N 38°34' W 009°48'713.7
2017-Nov-18 07:31N 38°27' W 009°47'713.8
2017-Nov-18 07:00N 38°21' W 009°45'714.0
2017-Nov-18 06:31N 38°14' W 009°43'713.9
2017-Nov-18 06:01N 38°07' W 009°41'714.1
2017-Nov-18 05:30N 38°00' W 009°39'714.0
2017-Nov-18 05:01N 37°53' W 009°38'714.0
2017-Nov-18 04:30N 37°46' W 009°36'815.4
2017-Nov-18 04:00N 37°39' W 009°35'917.4
2017-Nov-18 03:30N 37°30' W 009°33'917.3
2017-Nov-18 03:00N 37°22' W 009°31'816.8
2017-Nov-18 02:30N 37°14' W 009°26'917.1
2017-Nov-18 02:00N 37°06' W 009°24'917.3
2017-Nov-18 01:30N 36°58' W 009°22'816.7
2017-Nov-18 01:00N 36°50' W 009°17'917.5
2017-Nov-18 00:30N 36°45' W 009°08'917.6
2017-Nov-18 00:00N 36°43' W 008°57'917.5
2017-Nov-17 23:30N 36°40' W 008°47'917.5
2017-Nov-17 23:00N 36°38' W 008°36'1317.5
2017-Nov-17 22:15N 36°34' W 008°20'917.4
2017-Nov-17 21:43N 36°31' W 008°10'517.5
2017-Nov-17 21:28N 36°29' W 008°04'2417.4
2017-Nov-17 20:06N 36°21' W 007°37'217.5
2017-Nov-17 20:00N 36°20' W 007°35'917.6
2017-Nov-17 19:29N 36°17' W 007°24'817.3
2017-Nov-17 19:00N 36°15' W 007°14'8216.9
2017-Nov-17 14:09N 35°57' W 005°35'2 0.1
2017-Nov-16 16:37N 35°57' W 005°33'110.7
2017-Nov-16 16:30N 35°58' W 005°32'5 9.5
2017-Nov-16 15:59N 35°60' W 005°27'612.4
2017-Nov-16 15:30N 36°01' W 005°20'612.4
2017-Nov-16 15:00N 36°02' W 005°12'  
2017-Nov-14 07:25N 38°22' E 013°05'717.3
2017-Nov-14 07:00N 38°23' E 013°14'917.5
2017-Nov-14 06:30N 38°23' E 013°25'917.6
2017-Nov-14 06:00N 38°24' E 013°37'917.7
2017-Nov-14 05:30N 38°25' E 013°48'917.8
2017-Nov-14 05:00N 38°24' E 013°59'917.2
2017-Nov-14 04:30N 38°22' E 014°10'917.5
2017-Nov-14 03:59N 38°21' E 014°22'1117.9
2017-Nov-14 03:20N 38°19' E 014°36'618.0
2017-Nov-14 03:00N 38°19' E 014°44'917.8
2017-Nov-14 02:29N 38°18' E 014°55'917.6
2017-Nov-14 02:00N 38°18' E 015°06'917.7
2017-Nov-14 01:31N 38°21' E 015°17'917.5
2017-Nov-14 01:00N 38°23' E 015°28'917.5
2017-Nov-14 00:31N 38°26' E 015°38'917.5
2017-Nov-14 00:01N 38°27' E 015°49'4 7.5
2017-Nov-13 23:30N 38°27' E 015°54'0 0.1
2017-Nov-13 22:34N 38°27' E 015°54'0 0.0
2017-Nov-13 22:25N 38°27' E 015°54'0 0.0
2017-Nov-13 21:55N 38°27' E 015°54'0 0.0
2017-Nov-13 01:55N 38°27' E 015°54'0 0.0
2017-Nov-13 01:28N 38°27' E 015°54'0 0.0
2017-Nov-13 00:55N 38°27' E 015°54'0 0.0
2017-Nov-13 00:28N 38°27' E 015°54'0 0.0
2017-Nov-12 23:49N 38°27' E 015°54'0 0.0
2017-Nov-12 23:25N 38°27' E 015°54'0 0.0
2017-Nov-12 22:49N 38°27' E 015°54'0 0.0
2017-Nov-12 22:19N 38°27' E 015°54'0 0.0
2017-Nov-12 21:55N 38°27' E 015°54'1 1.9
2017-Nov-12 21:30N 38°27' E 015°53'1 2.6
2017-Nov-12 20:57N 38°26' E 015°52'612.3
2017-Nov-12 20:30N 38°22' E 015°47'817.0
2017-Nov-12 20:01N 38°15' E 015°40'714.2
2017-Nov-12 19:31N 38°09' E 015°37'612.1
2017-Nov-12 19:00N 38°03' E 015°35'510.4
2017-Nov-12 18:31N 37°58' E 015°34'815.2
2017-Nov-12 18:01N 37°52' E 015°40'917.2
2017-Nov-12 17:30N 37°48' E 015°49'917.2
2017-Nov-12 16:59N 37°44' E 015°60'816.8
2017-Nov-12 16:30N 37°41' E 016°09'815.5
2017-Nov-12 16:00N 37°37' E 016°18'  
Track history (hours):
 
Tides and Currents Weather Stations Pressure Air Temp Water Temp Dewpoint Dewpoint Depression Visibility Wind Speed Wind Dir Waves Ship Positions

MSC Alghero

Last reported at 2017-Nov-20 00:30 UTC. Time now 2017-Nov-20 02:01 UTC.
Position N 49°05' W 004°51'.

Length 300 m; draft 12.7 m.

Type: Cargo ship. MMSI: 351819000.

Date/timePositionNaut miles runAvg speedWind from/ knotsBaromVisibWave heightAir tempDewpointWater temp
2017-Nov-20 00:30N 49°05' W 004°51'816.9
2017-Nov-20 00:01N 49°00' W 005°02'816.8
2017-Nov-19 23:30N 48°56' W 005°13'816.6
2017-Nov-19 23:00N 48°52' W 005°24'816.4
2017-Nov-19 22:30N 48°48' W 005°34'816.4
2017-Nov-19 22:00N 48°42' W 005°43'816.6
2017-Nov-19 21:30N 48°34' W 005°49'816.5
2017-Nov-19 21:00N 48°27' W 005°55'816.5
2017-Nov-19 20:30N 48°20' W 006°00'816.4
2017-Nov-19 20:00N 48°12' W 006°05'916.4
2017-Nov-19 19:27N 48°04' W 006°11'916.7
2017-Nov-19 18:56N 47°57' W 006°17'816.5
2017-Nov-19 18:29N 47°50' W 006°23'816.9
2017-Nov-19 17:59N 47°42' W 006°28'816.8
2017-Nov-19 17:31N 47°35' W 006°33'917.1
2017-Nov-19 17:00N 47°28' W 006°39'1018.0
2017-Nov-19 16:29N 47°19' W 006°46'816.9
2017-Nov-19 16:00N 47°12' W 006°51'917.9
2017-Nov-19 15:30N 47°04' W 006°58'917.7
2017-Nov-19 14:59N 46°56' W 007°04'917.4
2017-Nov-19 14:28N 46°48' W 007°10'817.2
2017-Nov-19 14:00N 46°41' W 007°15'917.5
2017-Nov-19 13:28N 46°32' W 007°21'6117.5
2017-Nov-19 09:59N 45°39' W 008°01'2418.5
2017-Nov-19 08:40N 45°17' W 008°18'5919.3
2017-Nov-19 05:36N 44°24' W 008°55'5416.7
2017-Nov-19 02:20N 43°36' W 009°29'617.4
2017-Nov-19 01:59N 43°30' W 009°33'1016.7
2017-Nov-19 01:24N 43°21' W 009°39'1116.8
2017-Nov-19 00:44N 43°12' W 009°47'15116.9
2017-Nov-18 15:47N 40°40' W 009°50'516.9
2017-Nov-18 15:30N 40°35' W 009°49'5917.1
2017-Nov-18 12:03N 39°37' W 009°54'816.6
2017-Nov-18 11:36N 39°29' W 009°54'516.8
2017-Nov-18 11:18N 39°24' W 009°53'617.3
2017-Nov-18 10:59N 39°19' W 009°52'817.5
2017-Nov-18 10:30N 39°10' W 009°52'816.8
2017-Nov-18 10:00N 39°02' W 009°52'714.3
2017-Nov-18 09:30N 38°55' W 009°52'714.3
2017-Nov-18 09:00N 38°48' W 009°52'714.1
2017-Nov-18 08:30N 38°41' W 009°51'713.6
2017-Nov-18 08:00N 38°34' W 009°48'713.7
2017-Nov-18 07:31N 38°27' W 009°47'713.8
2017-Nov-18 07:00N 38°21' W 009°45'714.0
2017-Nov-18 06:31N 38°14' W 009°43'713.9
2017-Nov-18 06:01N 38°07' W 009°41'714.1
2017-Nov-18 05:30N 38°00' W 009°39'714.0
2017-Nov-18 05:01N 37°53' W 009°38'714.0
2017-Nov-18 04:30N 37°46' W 009°36'815.4
2017-Nov-18 04:00N 37°39' W 009°35'917.4
2017-Nov-18 03:30N 37°30' W 009°33'917.3
2017-Nov-18 03:00N 37°22' W 009°31'816.8
2017-Nov-18 02:30N 37°14' W 009°26'917.1
2017-Nov-18 02:00N 37°06' W 009°24'917.3
2017-Nov-18 01:30N 36°58' W 009°22'816.7
2017-Nov-18 01:00N 36°50' W 009°17'917.5
2017-Nov-18 00:30N 36°45' W 009°08'917.6
2017-Nov-18 00:00N 36°43' W 008°57'917.5
2017-Nov-17 23:30N 36°40' W 008°47'917.5
2017-Nov-17 23:00N 36°38' W 008°36'1317.5
2017-Nov-17 22:15N 36°34' W 008°20'917.4
2017-Nov-17 21:43N 36°31' W 008°10'517.5
2017-Nov-17 21:28N 36°29' W 008°04'2417.4
2017-Nov-17 20:06N 36°21' W 007°37'217.5
2017-Nov-17 20:00N 36°20' W 007°35'917.6
2017-Nov-17 19:29N 36°17' W 007°24'817.3
2017-Nov-17 19:00N 36°15' W 007°14'8216.9
2017-Nov-17 14:09N 35°57' W 005°35'2 0.1
2017-Nov-16 16:37N 35°57' W 005°33'110.7
2017-Nov-16 16:30N 35°58' W 005°32'5 9.5
2017-Nov-16 15:59N 35°60' W 005°27'612.4
2017-Nov-16 15:30N 36°01' W 005°20'612.4
2017-Nov-16 15:00N 36°02' W 005°12'  
2017-Nov-14 07:25N 38°22' E 013°05'717.3
2017-Nov-14 07:00N 38°23' E 013°14'917.5
2017-Nov-14 06:30N 38°23' E 013°25'917.6
2017-Nov-14 06:00N 38°24' E 013°37'917.7
2017-Nov-14 05:30N 38°25' E 013°48'917.8
2017-Nov-14 05:00N 38°24' E 013°59'917.2
2017-Nov-14 04:30N 38°22' E 014°10'917.5
2017-Nov-14 03:59N 38°21' E 014°22'1117.9
2017-Nov-14 03:20N 38°19' E 014°36'618.0
2017-Nov-14 03:00N 38°19' E 014°44'917.8
2017-Nov-14 02:29N 38°18' E 014°55'917.6
2017-Nov-14 02:00N 38°18' E 015°06'917.7
2017-Nov-14 01:31N 38°21' E 015°17'917.5
2017-Nov-14 01:00N 38°23' E 015°28'917.5
2017-Nov-14 00:31N 38°26' E 015°38'917.5
2017-Nov-14 00:01N 38°27' E 015°49'4 7.5
2017-Nov-13 23:30N 38°27' E 015°54'0 0.1
2017-Nov-13 22:34N 38°27' E 015°54'0 0.0
2017-Nov-13 22:25N 38°27' E 015°54'0 0.0
2017-Nov-13 21:55N 38°27' E 015°54'0 0.0
2017-Nov-13 01:55N 38°27' E 015°54'0 0.0
2017-Nov-13 01:28N 38°27' E 015°54'0 0.0
2017-Nov-13 00:55N 38°27' E 015°54'0 0.0
2017-Nov-13 00:28N 38°27' E 015°54'0 0.0
2017-Nov-12 23:49N 38°27' E 015°54'0 0.0
2017-Nov-12 23:25N 38°27' E 015°54'0 0.0
2017-Nov-12 22:49N 38°27' E 015°54'0 0.0
2017-Nov-12 22:19N 38°27' E 015°54'0 0.0
2017-Nov-12 21:55N 38°27' E 015°54'1 1.9
2017-Nov-12 21:30N 38°27' E 015°53'1 2.6
2017-Nov-12 20:57N 38°26' E 015°52'612.3
2017-Nov-12 20:30N 38°22' E 015°47'817.0
2017-Nov-12 20:01N 38°15' E 015°40'714.2
2017-Nov-12 19:31N 38°09' E 015°37'612.1
2017-Nov-12 19:00N 38°03' E 015°35'510.4
2017-Nov-12 18:31N 37°58' E 015°34'815.2
2017-Nov-12 18:01N 37°52' E 015°40'917.2
2017-Nov-12 17:30N 37°48' E 015°49'917.2
2017-Nov-12 16:59N 37°44' E 015°60'816.8
2017-Nov-12 16:30N 37°41' E 016°09'815.5
2017-Nov-12 16:00N 37°37' E 016°18'  

Dump ship's entire track history